Time;durP1;ratioP1;P1;durP2;ratioP2;P2;SDS_P1;SDS_P2;PMS_P1;PMS_P2;Temp;Humidity;BMP_temperature;BMP_pressure;BME280_temperature;BME280_humidity;BME280_pressure;Samples;Min_cycle;Max_cycle;Signal;HPM_P1;HPM_P2
2023/11/18 00:01:17;;;;;;;;;;;6.50;68.70;;;1.50;100.00;96364.97;4969528;28;19917;-56
2023/11/18 00:03:42;;;;;;;;;;;6.50;68.80;;;1.43;100.00;96359.66;4975053;28;20300;-56
2023/11/18 00:06:08;;;;;;;;;;;6.40;68.80;;;1.39;100.00;96366.31;4957394;28;19909;-57
2023/11/18 00:08:34;;;;;;;;;;;6.30;68.80;;;1.36;100.00;96358.78;4975399;28;20047;-59
2023/11/18 00:11:00;;;;;;;;;;;6.30;68.90;;;1.30;100.00;96362.16;4974471;28;19913;-56
2023/11/18 00:13:26;;;;;;;;;;;6.20;68.90;;;1.28;100.00;96364.16;4974706;28;19979;-56
2023/11/18 00:15:52;;;;;;;;;;;6.20;69.00;;;1.27;100.00;96360.72;4976965;28;20004;-57
2023/11/18 00:18:18;;;;;;;;;;;6.20;69.20;;;1.25;100.00;96362.72;4980719;28;19936;-59
2023/11/18 00:20:45;;;;;;;;;;;6.20;69.40;;;1.28;100.00;96359.72;4969347;28;20368;-57
2023/11/18 00:23:11;;;;;;;;;;;6.20;69.50;;;1.31;100.00;96356.72;4963430;28;20322;-59
2023/11/18 00:25:39;;;;;;;;;;;6.20;69.60;;;1.34;100.00;96356.34;4974998;28;19917;-58
2023/11/18 00:28:08;;;;;;;;;;;6.30;69.70;;;1.35;100.00;96352.75;4974851;28;19917;-59
2023/11/18 00:30:34;;;;;;;;;;;6.30;69.70;;;1.36;100.00;96350.91;4974190;28;19964;-57
2023/11/18 00:33:00;;;;;;;;;;;6.30;69.70;;;1.42;100.00;96355.41;4974604;28;19913;-57
2023/11/18 00:35:26;;;;;;;;;;;6.30;69.70;;;1.50;100.00;96351.84;4973920;28;20287;-58
2023/11/18 00:37:52;;;;;;;;;;;6.40;69.80;;;1.53;100.00;96352.28;4974675;28;19917;-58
2023/11/18 00:40:20;;;;;;;;;;;6.40;69.80;;;1.57;100.00;96350.91;4973759;28;19910;-58
2023/11/18 00:42:46;;;;;;;;;;;6.40;70.30;;;1.61;100.00;96360.03;4980706;23;19930;-48
2023/11/18 00:45:14;;;;;;;;;;;6.50;69.90;;;1.67;100.00;96355.03;4940346;28;19915;-47
2023/11/18 00:47:41;;;;;;;;;;;6.50;69.80;;;1.71;100.00;96353.66;4936740;28;19910;-50
2023/11/18 00:50:08;;;;;;;;;;;6.60;69.90;;;1.77;100.00;96363.41;4931591;29;19910;-50
2023/11/18 00:52:35;;;;;;;;;;;6.60;69.90;;;1.80;100.00;96363.81;4934999;28;20621;-53
2023/11/18 00:55:01;;;;;;;;;;;6.70;70.00;;;1.80;100.00;96358.56;4950365;28;19914;-51
2023/11/18 00:57:27;;;;;;;;;;;6.70;70.00;;;1.87;100.00;96363.88;4955290;28;19921;-49
2023/11/18 00:59:53;;;;;;;;;;;6.80;70.00;;;1.95;100.00;96373.44;4951708;28;19910;-48
2023/11/18 01:02:19;;;;;;;;;;;6.90;70.10;;;2.01;100.00;96376.13;4954357;28;19910;-49
2023/11/18 01:04:48;;;;;;;;;;;6.90;70.00;;;2.06;100.00;96378.97;4954112;28;19933;-48
2023/11/18 01:07:13;;;;;;;;;;;6.90;70.00;;;2.12;100.00;96379.22;4935881;28;19910;-54
2023/11/18 01:09:40;;;;;;;;;;;7.00;70.00;;;2.15;100.00;96374.38;4954970;28;19937;-52
2023/11/18 01:12:09;;;;;;;;;;;7.00;70.00;;;2.20;100.00;96381.72;4935791;28;19950;-49
2023/11/18 01:14:39;;;;;;;;;;;7.10;70.00;;;2.24;100.00;96383.75;4954770;28;19925;-49
2023/11/18 01:17:05;;;;;;;;;;;7.10;69.90;;;2.28;100.00;96382.34;4953574;28;19981;-52
2023/11/18 01:19:33;;;;;;;;;;;7.20;70.00;;;2.31;100.00;96379.34;4954616;28;20049;-52
2023/11/18 01:21:59;;;;;;;;;;;7.20;70.00;;;2.36;100.00;96386.66;4954755;28;19910;-53
2023/11/18 01:24:25;;;;;;;;;;;7.30;70.00;;;2.40;100.00;96384.44;4950337;28;20400;-52
2023/11/18 01:26:51;;;;;;;;;;;7.30;70.00;;;2.44;100.00;96380.41;4954555;28;19914;-52
2023/11/18 01:29:17;;;;;;;;;;;7.30;69.90;;;2.44;100.00;96381.22;4935224;28;19910;-51
2023/11/18 01:31:43;;;;;;;;;;;7.30;69.90;;;2.46;100.00;96375.78;4954504;28;19914;-48
2023/11/18 01:34:09;;;;;;;;;;;7.40;69.90;;;2.52;100.00;96383.72;4954036;28;19920;-51
2023/11/18 01:36:35;;;;;;;;;;;7.30;69.80;;;2.53;100.00;96379.25;4953469;28;20303;-51
2023/11/18 01:39:01;;;;;;;;;;;7.40;69.80;;;2.53;100.00;96379.25;4954302;28;19922;-49
2023/11/18 01:41:29;;;;;;;;;;;7.30;69.60;;;2.47;100.00;96380.84;4953157;28;20052;-50
2023/11/18 01:43:54;;;;;;;;;;;7.30;69.60;;;2.43;100.00;96384.88;4955890;28;19918;-48
2023/11/18 01:46:23;;;;;;;;;;;7.30;69.50;;;2.35;100.00;96377.16;4953256;28;19921;-52
2023/11/18 01:48:49;;;;;;;;;;;7.20;69.40;;;2.31;100.00;96381.16;4950479;28;19910;-50
2023/11/18 01:51:16;;;;;;;;;;;7.20;69.40;;;2.22;100.00;96382.31;4952656;28;19961;-50
2023/11/18 01:53:44;;;;;;;;;;;7.10;69.30;;;2.12;100.00;96389.72;4935376;28;20002;-53
2023/11/18 01:56:11;;;;;;;;;;;7.10;69.30;;;2.03;100.00;96389.06;4952900;28;19914;-54
2023/11/18 01:58:37;;;;;;;;;;;7.00;69.30;;;1.94;100.00;96390.19;4953080;28;19937;-52
2023/11/18 02:01:08;;;;;;;;;;;6.90;69.30;;;1.88;100.00;96383.06;4953143;28;19910;-49
2023/11/18 02:03:38;;;;;;;;;;;6.80;69.20;;;1.80;100.00;96379.59;4937010;28;19918;-52
2023/11/18 02:06:06;;;;;;;;;;;6.80;69.30;;;1.73;100.00;96386.59;4949387;28;20312;-50
2023/11/18 02:08:37;;;;;;;;;;;6.70;69.30;;;1.66;100.00;96382.28;4952783;28;19921;-47
2023/11/18 02:11:41;;;;;;;;;;;6.70;69.40;;;1.55;100.00;96381.78;4952771;28;20013;-49
2023/11/18 02:14:12;;;;;;;;;;;6.60;69.30;;;1.48;100.00;96380.13;4953476;28;19918;-52
2023/11/18 02:16:42;;;;;;;;;;;6.50;69.30;;;1.38;100.00;96375.19;4930362;28;20332;-49
2023/11/18 02:19:24;;;;;;;;;;;6.40;69.30;;;1.34;100.00;96372.09;4950740;28;20439;-51
2023/11/18 02:21:54;;;;;;;;;;;6.30;69.30;;;1.26;100.00;96358.31;4946991;28;19910;-49
2023/11/18 02:24:30;;;;;;;;;;;6.30;69.30;;;1.18;100.00;96361.03;4935155;28;20049;-47
2023/11/18 02:27:00;;;;;;;;;;;6.20;69.30;;;1.14;100.00;96355.34;4917841;28;19934;-49
2023/11/18 02:29:37;;;;;;;;;;;6.10;69.40;;;1.06;100.00;96353.63;4945804;28;19910;-51
2023/11/18 02:32:23;;;;;;;;;;;6.10;69.50;;;1.07;100.00;96354.47;4935874;28;19910;-51
2023/11/18 02:35:17;;;;;;;;;;;6.00;69.60;;;1.01;100.00;96350.78;4952240;28;19921;-48
2023/11/18 02:37:49;;;;;;;;;;;6.00;69.70;;;0.96;100.00;96345.25;4946028;28;19914;-49
2023/11/18 02:40:37;;;;;;;;;;;5.90;69.60;;;0.88;100.00;96354.06;4936486;28;19914;-52
2023/11/18 02:43:05;;;;;;;;;;;5.80;69.50;;;0.81;100.00;96352.34;4939485;28;19997;-51
2023/11/18 02:45:33;;;;;;;;;;;5.80;69.60;;;0.75;100.00;96351.28;4916434;28;20496;-49
2023/11/18 02:48:00;;;;;;;;;;;5.70;69.60;;;0.71;100.00;96349.22;4951422;28;20447;-49
2023/11/18 02:50:29;;;;;;;;;;;5.70;69.60;;;0.69;100.00;96359.91;4951203;28;19917;-48
2023/11/18 02:52:56;;;;;;;;;;;5.70;69.70;;;0.65;100.00;96353.38;4921182;28;20269;-53
2023/11/18 02:55:22;;;;;;;;;;;5.60;69.70;;;0.61;100.00;96355.56;4952985;28;19960;-50
2023/11/18 02:57:51;;;;;;;;;;;5.60;69.80;;;0.55;100.00;96355.47;4952796;28;19921;-48
2023/11/18 03:00:22;;;;;;;;;;;5.60;69.80;;;0.50;100.00;96344.72;4952063;28;19917;-47
2023/11/18 03:02:51;;;;;;;;;;;5.50;69.80;;;0.48;100.00;96349.34;4952312;28;20360;-51
2023/11/18 03:05:18;;;;;;;;;;;5.50;69.80;;;0.48;100.00;96346.72;4934922;28;20273;-48
2023/11/18 03:07:49;;;;;;;;;;;5.40;69.80;;;0.47;100.00;96343.31;4931984;28;19910;-50
2023/11/18 03:10:20;;;;;;;;;;;5.40;69.90;;;0.45;100.00;96338.22;4952518;28;19916;-48
2023/11/18 03:12:52;;;;;;;;;;;5.40;70.00;;;0.45;100.00;96334.78;4947310;28;19910;-49
2023/11/18 03:15:19;;;;;;;;;;;5.40;70.10;;;0.44;100.00;96335.81;4953052;28;19916;-47
2023/11/18 03:17:48;;;;;;;;;;;5.30;70.00;;;0.37;100.00;96335.69;4950957;28;19914;-50
2023/11/18 03:20:16;;;;;;;;;;;5.30;70.00;;;0.33;100.00;96341.50;4952759;28;19941;-56
2023/11/18 03:22:44;;;;;;;;;;;5.30;70.00;;;0.28;100.00;96352.50;4951189;28;20293;-52
2023/11/18 03:25:12;;;;;;;;;;;5.20;69.90;;;0.28;100.00;96355.13;4941092;28;19912;-52
2023/11/18 03:27:38;;;;;;;;;;;5.20;70.00;;;0.28;100.00;96360.38;4952721;28;20332;-48
2023/11/18 03:30:06;;;;;;;;;;;5.20;70.00;;;0.25;100.00;96357.28;4945491;28;19918;-53
2023/11/18 03:32:32;;;;;;;;;;;5.20;70.00;;;0.20;100.00;96361.28;4951815;28;19918;-47
2023/11/18 03:35:01;;;;;;;;;;;5.20;70.00;;;0.17;100.00;96350.34;4950784;28;19914;-51
2023/11/18 03:37:27;;;;;;;;;;;5.10;70.00;;;0.14;100.00;96341.03;4952241;29;19914;-50
2023/11/18 03:39:53;;;;;;;;;;;5.10;70.00;;;0.14;100.00;96329.75;4952262;29;20296;-48
2023/11/18 03:42:19;;;;;;;;;;;5.10;70.10;;;0.12;100.00;96329.09;4950565;28;19964;-50
2023/11/18 03:44:47;;;;;;;;;;;5.10;70.10;;;0.10;100.00;96328.50;4954251;28;20365;-51
2023/11/18 03:47:16;;;;;;;;;;;5.00;70.10;;;0.08;100.00;96326.03;4951435;28;19910;-48
2023/11/18 03:49:42;;;;;;;;;;;5.10;70.30;;;0.06;100.00;96338.50;4933377;29;20020;-54
2023/11/18 03:52:08;;;;;;;;;;;5.00;70.20;;;0.05;100.00;96338.69;4951139;29;19910;-50
2023/11/18 03:54:33;;;;;;;;;;;5.00;70.20;;;0.02;100.00;96337.22;4947274;28;19940;-49
2023/11/18 03:56:59;;;;;;;;;;;5.00;70.20;;;0.02;100.00;96346.91;4952213;29;19992;-48
2023/11/18 03:59:25;;;;;;;;;;;5.00;70.30;;;0.01;100.00;96345.28;4930231;29;19981;-50
2023/11/18 04:01:51;;;;;;;;;;;5.00;70.30;;;0.03;100.00;96340.66;4952064;28;20371;-51
2023/11/18 04:04:17;;;;;;;;;;;5.00;70.30;;;0.03;100.00;96346.72;4924470;29;19910;-55
2023/11/18 04:06:44;;;;;;;;;;;5.00;70.40;;;0.03;100.00;96344.09;4951817;29;20369;-48
2023/11/18 04:09:10;;;;;;;;;;;4.90;70.30;;;0.03;100.00;96349.34;4952289;29;20348;-54
2023/11/18 04:11:38;;;;;;;;;;;4.90;70.30;;;0.04;100.00;96352.78;4951094;28;19910;-47
2023/11/18 04:14:04;;;;;;;;;;;4.90;70.30;;;0.05;100.00;96357.84;4951529;29;19921;-48
2023/11/18 04:16:30;;;;;;;;;;;5.00;70.40;;;0.05;100.00;96349.16;4951171;28;19914;-49
2023/11/18 04:18:55;;;;;;;;;;;5.00;70.40;;;0.04;100.00;96345.75;4950940;29;19918;-47
2023/11/18 04:21:22;;;;;;;;;;;4.90;70.30;;;0.03;100.00;96335.44;4951918;29;19914;-51
2023/11/18 04:23:48;;;;;;;;;;;4.90;70.30;;;0.05;100.00;96328.22;4949615;28;20430;-49
2023/11/18 04:26:14;;;;;;;;;;;4.90;70.40;;;0.05;100.00;96331.63;4944143;29;19910;-53
2023/11/18 04:28:40;;;;;;;;;;;4.90;70.40;;;0.01;100.00;96330.38;4948225;28;19992;-52
2023/11/18 04:31:06;;;;;;;;;;;4.90;70.30;;;-0.03;100.00;96334.38;4933863;29;19956;-49
2023/11/18 04:33:33;;;;;;;;;;;4.90;70.30;;;-0.08;100.00;96329.66;4929037;29;19918;-48
2023/11/18 04:35:59;;;;;;;;;;;4.90;70.30;;;-0.05;100.00;96337.16;4928937;29;20368;-49
2023/11/18 04:38:26;;;;;;;;;;;4.90;70.30;;;-0.03;100.00;96342.22;4945777;29;19932;-48
2023/11/18 04:40:55;;;;;;;;;;;4.90;70.30;;;-0.04;100.00;96343.19;4922255;29;19965;-49
2023/11/18 04:43:24;;;;;;;;;;;4.90;70.40;;;-0.01;100.00;96343.63;4944568;28;19956;-48
2023/11/18 04:45:50;;;;;;;;;;;4.90;70.40;;;0.02;100.00;96347.72;4931991;28;20261;-47
2023/11/18 04:48:16;;;;;;;;;;;4.90;70.40;;;-0.01;100.00;96350.69;4951301;28;19930;-48
2023/11/18 04:50:42;;;;;;;;;;;4.90;70.40;;;-0.05;100.00;96355.47;4932016;28;20033;-51
2023/11/18 04:53:10;;;;;;;;;;;4.90;70.40;;;-0.04;100.00;96354.47;4947548;28;19917;-47
2023/11/18 04:55:37;;;;;;;;;;;4.90;70.40;;;-0.06;100.00;96356.47;4947808;28;19910;-48
2023/11/18 04:58:05;;;;;;;;;;;4.80;70.40;;;-0.10;100.00;96359.63;4949308;28;19937;-48
2023/11/18 05:00:35;;;;;;;;;;;4.80;70.40;;;-0.11;100.00;96355.38;4952867;28;19945;-51
2023/11/18 05:03:03;;;;;;;;;;;4.80;70.30;;;-0.14;100.00;96356.53;4946516;28;19925;-51
2023/11/18 05:05:29;;;;;;;;;;;4.80;70.30;;;-0.16;100.00;96350.66;4950284;28;19917;-48
2023/11/18 05:07:55;;;;;;;;;;;4.80;70.40;;;-0.18;100.00;96342.19;4946034;28;19914;-52
2023/11/18 05:10:20;;;;;;;;;;;4.80;70.30;;;-0.21;100.00;96344.34;4949565;28;19910;-54
2023/11/18 05:12:55;;;;;;;;;;;4.70;70.30;;;-0.24;100.00;96337.66;4936873;28;19910;-55
2023/11/18 05:15:25;;;;;;;;;;;4.70;70.40;;;-0.20;100.00;96341.56;4951643;28;19977;-52
2023/11/18 05:17:55;;;;;;;;;;;4.70;70.40;;;-0.19;100.00;96343.16;4946970;28;19910;-51
2023/11/18 05:20:21;;;;;;;;;;;4.70;70.50;;;-0.18;100.00;96331.72;4949863;28;19910;-50
2023/11/18 05:22:48;;;;;;;;;;;4.70;70.50;;;-0.21;100.00;96329.47;4927352;28;19910;-51
2023/11/18 05:25:14;;;;;;;;;;;4.70;70.60;;;-0.18;100.00;96321.25;4936582;28;19961;-54
2023/11/18 05:27:40;;;;;;;;;;;4.70;70.60;;;-0.19;100.00;96326.66;4951208;28;19917;-56
2023/11/18 05:30:08;;;;;;;;;;;4.70;70.60;;;-0.14;100.00;96332.97;4929610;28;20373;-51
2023/11/18 05:32:34;;;;;;;;;;;4.70;70.70;;;-0.09;100.00;96322.78;4931731;28;20376;-47
2023/11/18 05:35:00;;;;;;;;;;;4.80;70.80;;;-0.09;100.00;96328.03;4928807;28;19921;-48
2023/11/18 05:37:28;;;;;;;;;;;4.80;70.80;;;-0.02;100.00;96331.53;4931941;28;19910;-49
2023/11/18 05:40:06;;;;;;;;;;;4.80;70.80;;;-0.05;100.00;96331.09;4951868;28;20005;-50
2023/11/18 05:42:33;;;;;;;;;;;4.80;70.80;;;0.02;100.00;96326.75;4929566;28;19929;-47
2023/11/18 05:44:59;;;;;;;;;;;4.80;70.90;;;0.03;100.00;96320.50;4953038;28;19973;-46
2023/11/18 05:47:28;;;;;;;;;;;4.90;70.80;;;0.02;100.00;96318.09;4951066;28;20009;-50
2023/11/18 05:49:54;;;;;;;;;;;4.90;70.80;;;0.01;100.00;96319.09;4948260;28;19917;-47
2023/11/18 05:52:22;;;;;;;;;;;4.90;70.70;;;-0.02;100.00;96326.31;4932750;28;19957;-51
2023/11/18 05:54:48;;;;;;;;;;;4.90;70.70;;;-0.01;100.00;96338.41;4928733;28;19917;-50
2023/11/18 05:57:17;;;;;;;;;;;4.90;70.70;;;0.02;100.00;96337.22;4951446;28;19910;-55
2023/11/18 05:59:44;;;;;;;;;;;4.90;70.80;;;0.06;100.00;96337.69;4946526;28;20048;-51
2023/11/18 06:02:17;;;;;;;;;;;4.90;70.80;;;0.09;100.00;96324.22;4923800;29;20296;-54
2023/11/18 06:04:44;;;;;;;;;;;4.90;70.80;;;0.08;100.00;96320.81;4946561;28;20361;-48
2023/11/18 06:07:10;;;;;;;;;;;5.00;70.90;;;0.04;100.00;96316.91;4949384;28;19917;-51
2023/11/18 06:09:35;;;;;;;;;;;5.00;70.80;;;0.05;100.00;96310.69;4953006;28;20293;-47
2023/11/18 06:12:02;;;;;;;;;;;5.00;70.80;;;0.08;100.00;96314.75;4952362;28;19925;-47
2023/11/18 06:14:27;;;;;;;;;;;5.00;70.70;;;0.04;100.00;96318.72;4925701;28;19911;-48
2023/11/18 06:16:54;;;;;;;;;;;5.00;70.80;;;0.03;100.00;96314.47;4946272;28;20004;-51
2023/11/18 06:19:20;;;;;;;;;;;5.00;70.70;;;0.08;100.00;96323.41;4948240;28;20016;-47
2023/11/18 06:21:46;;;;;;;;;;;5.00;70.80;;;0.15;100.00;96320.88;4946006;28;20409;-49
2023/11/18 06:24:14;;;;;;;;;;;5.00;70.80;;;0.20;100.00;96314.13;4950089;28;19910;-51
2023/11/18 06:26:41;;;;;;;;;;;5.10;70.90;;;0.15;100.00;96319.06;4945801;28;19957;-54
2023/11/18 06:29:07;;;;;;;;;;;5.10;70.80;;;0.16;100.00;96322.53;4949118;28;19914;-47
2023/11/18 06:31:33;;;;;;;;;;;5.10;70.70;;;0.15;100.00;96329.56;4951795;28;19937;-48
2023/11/18 06:33:59;;;;;;;;;;;5.10;70.70;;;0.15;100.00;96329.56;4925842;29;20304;-47
2023/11/18 06:36:26;;;;;;;;;;;5.10;70.60;;;0.14;100.00;96335.78;4933432;28;19917;-48
2023/11/18 06:38:53;;;;;;;;;;;5.10;70.60;;;0.14;100.00;96330.56;4946814;28;19965;-49
2023/11/18 06:41:48;;;;;;;;;;;5.10;70.60;;;0.16;100.00;96330.38;4948669;28;19910;-48
2023/11/18 06:44:12;;;;;;;;;;;5.10;70.60;;;0.17;100.00;96327.56;4951176;28;19961;-49
2023/11/18 06:46:39;;;;;;;;;;;5.10;70.60;;;0.17;100.00;96322.34;4947361;28;20439;-50
2023/11/18 06:49:15;;;;;;;;;;;5.20;70.70;;;0.19;100.00;96337.91;4950438;28;20000;-50
2023/11/18 06:51:41;;;;;;;;;;;5.10;70.60;;;0.18;100.00;96344.91;4942581;28;20525;-49
2023/11/18 06:54:13;;;;;;;;;;;5.20;70.70;;;0.21;100.00;96339.31;4942595;28;19918;-47
2023/11/18 06:56:45;;;;;;;;;;;5.20;71.40;;;0.20;100.00;96339.50;4952390;28;19917;-47
2023/11/18 06:59:13;;;;;;;;;;;5.20;70.60;;;0.22;100.00;96337.53;4942171;28;20352;-47
2023/11/18 07:01:43;;;;;;;;;;;5.30;70.70;;;0.25;100.00;96331.91;4948244;28;19910;-52
2023/11/18 07:04:09;;;;;;;;;;;5.30;70.70;;;0.27;100.00;96329.91;4946311;28;20072;-47
2023/11/18 07:06:39;;;;;;;;;;;5.30;70.70;;;0.28;100.00;96331.53;4947636;28;19918;-47
2023/11/18 07:09:16;;;;;;;;;;;5.30;70.60;;;0.33;100.00;96331.00;4930891;29;19914;-57
2023/11/18 07:11:43;;;;;;;;;;;5.30;70.60;;;0.37;100.00;96335.69;4938571;28;19925;-54
2023/11/18 07:14:12;;;;;;;;;;;5.40;70.70;;;0.42;100.00;96329.91;4950576;28;19927;-50
2023/11/18 07:16:39;;;;;;;;;;;5.50;70.70;;;0.45;100.00;96334.78;4927206;28;20395;-53
2023/11/18 07:19:06;;;;;;;;;;;5.50;70.80;;;0.52;100.00;96337.50;4947928;28;19911;-52
2023/11/18 07:21:33;;;;;;;;;;;5.60;70.70;;;0.55;100.00;96337.13;4944060;28;19918;-54
2023/11/18 07:23:59;;;;;;;;;;;5.60;70.70;;;0.58;100.00;96342.81;4948336;28;19910;-55
2023/11/18 07:26:25;;;;;;;;;;;5.60;70.70;;;0.60;100.00;96348.69;4950662;28;20020;-53
2023/11/18 07:28:51;;;;;;;;;;;5.70;70.70;;;0.66;100.00;96355.84;4945535;28;20021;-55
2023/11/18 07:31:18;;;;;;;;;;;5.80;70.70;;;0.71;100.00;96357.91;4953496;28;19917;-53
2023/11/18 07:33:49;;;;;;;;;;;5.90;70.70;;;0.73;100.00;96361.16;4942954;29;19910;-54
2023/11/18 07:36:22;;;;;;;;;;;5.90;70.60;;;0.83;100.00;96360.88;4946858;28;19917;-51
2023/11/18 07:38:50;;;;;;;;;;;6.00;70.70;;;0.90;100.00;96361.75;4929056;29;19996;-54
2023/11/18 07:41:23;;;;;;;;;;;6.10;70.60;;;0.96;100.00;96363.63;4944620;28;19964;-55
2023/11/18 07:43:54;;;;;;;;;;;6.20;70.60;;;1.02;100.00;96360.25;4952796;28;19925;-54
2023/11/18 07:46:23;;;;;;;;;;;6.30;70.60;;;1.13;100.00;96365.03;4944839;28;20277;-54
2023/11/18 07:48:51;;;;;;;;;;;6.40;70.60;;;1.22;100.00;96367.53;4948820;28;19942;-56
2023/11/18 07:51:21;;;;;;;;;;;6.50;70.60;;;1.29;100.00;96369.25;4944416;28;19941;-51
2023/11/18 07:53:50;;;;;;;;;;;6.60;70.60;;;1.39;100.00;96364.47;4947859;28;19944;-55
2023/11/18 07:56:17;;;;;;;;;;;6.80;70.60;;;1.52;100.00;96366.41;4942570;28;19910;-55
2023/11/18 07:58:45;;;;;;;;;;;6.90;70.60;;;1.64;100.00;96363.28;4927957;29;19910;-55
2023/11/18 08:01:12;;;;;;;;;;;7.00;70.40;;;1.72;100.00;96365.78;4945995;29;20334;-57
2023/11/18 08:03:41;;;;;;;;;;;7.20;70.40;;;1.83;100.00;96352.13;4944219;29;19917;-57
2023/11/18 08:06:07;;;;;;;;;;;7.40;70.30;;;1.96;100.00;96362.72;4928343;29;19914;-58
2023/11/18 08:08:34;;;;;;;;;;;7.60;70.30;;;2.11;100.00;96359.19;4949434;28;20273;-58
2023/11/18 08:11:00;;;;;;;;;;;7.80;70.30;;;2.26;100.00;96359.91;4948989;28;19940;-56
2023/11/18 08:13:26;;;;;;;;;;;7.90;70.10;;;2.37;100.00;96346.19;4976377;23;19921;-56
2023/11/18 08:15:52;;;;;;;;;;;8.10;70.00;;;2.51;100.00;96358.44;5009985;28;20359;-56
2023/11/18 08:18:21;;;;;;;;;;;8.20;70.00;;;2.63;100.00;96363.13;5004486;28;19909;-53
2023/11/18 08:20:47;;;;;;;;;;;8.40;69.90;;;2.75;100.00;96357.09;5006382;28;20394;-54
2023/11/18 08:23:13;;;;;;;;;;;8.50;69.80;;;2.89;100.00;96354.53;5005655;28;19949;-54
2023/11/18 08:25:40;;;;;;;;;;;8.70;69.90;;;2.97;100.00;96360.41;4995281;28;19913;-56
2023/11/18 08:28:08;;;;;;;;;;;8.80;69.80;;;3.07;100.00;96362.69;4994996;28;19949;-55
2023/11/18 08:30:37;;;;;;;;;;;8.90;69.70;;;3.17;100.00;96360.50;4993741;28;19917;-53
2023/11/18 08:33:09;;;;;;;;;;;9.00;69.60;;;3.27;100.00;96375.91;4995079;28;19913;-57
2023/11/18 08:35:38;;;;;;;;;;;9.10;69.50;;;3.37;100.00;96375.53;4999464;28;19918;-50
2023/11/18 08:38:07;;;;;;;;;;;9.20;69.50;;;3.43;100.00;96378.16;4995093;28;20379;-54
2023/11/18 08:40:34;;;;;;;;;;;9.40;69.30;;;3.52;100.00;96375.34;4993952;28;19920;-58
2023/11/18 08:43:01;;;;;;;;;;;9.60;69.20;;;3.62;100.00;96373.13;4994834;28;19913;-52
2023/11/18 08:45:32;;;;;;;;;;;9.70;69.00;;;3.78;100.00;96366.66;4994864;28;19913;-54
2023/11/18 08:48:07;;;;;;;;;;;9.90;69.00;;;3.91;100.00;96361.38;4998125;28;20284;-51
2023/11/18 08:50:35;;;;;;;;;;;10.00;68.90;;;4.02;100.00;96350.22;4994719;28;19921;-51
2023/11/18 08:53:05;;;;;;;;;;;10.10;68.80;;;4.12;100.00;96340.06;4993986;28;20307;-53
2023/11/18 08:58:27;;;;;;;;;;;10.30;68.60;;;4.18;100.00;96346.34;4991656;28;20352;-53
2023/11/18 09:01:13;;;;;;;;;;;10.40;68.60;;;4.23;100.00;96346.56;4993096;28;19936;-53
2023/11/18 09:03:43;;;;;;;;;;;10.40;68.40;;;4.40;100.00;96341.66;4991344;28;19925;-54
2023/11/18 09:06:25;;;;;;;;;;;10.60;68.60;;;4.61;100.00;96341.38;4983323;28;20487;-54
2023/11/18 09:08:57;;;;;;;;;;;10.70;68.60;;;4.83;100.00;96334.00;4989068;28;20375;-52
2023/11/18 09:11:28;;;;;;;;;;;11.00;68.80;;;5.02;100.00;96329.63;4993728;28;20008;-51
2023/11/18 09:13:59;;;;;;;;;;;11.20;69.50;;;5.03;100.00;96328.59;4971890;28;20295;-52
2023/11/18 09:16:29;;;;;;;;;;;11.40;68.40;;;4.98;100.00;96320.53;4992861;28;19910;-55
2023/11/18 09:18:59;;;;;;;;;;;11.60;68.10;;;5.10;100.00;96313.53;4988477;28;19939;-51
2023/11/18 09:21:29;;;;;;;;;;;11.60;67.80;;;5.01;100.00;96321.91;4994305;28;19917;-53
2023/11/18 09:23:56;;;;;;;;;;;11.80;67.80;;;5.03;100.00;96325.97;4989102;28;19910;-51
2023/11/18 09:26:22;;;;;;;;;;;11.80;67.40;;;5.18;100.00;96315.13;4991766;28;19920;-52
2023/11/18 09:28:49;;;;;;;;;;;11.90;67.20;;;5.30;100.00;96310.78;5000199;28;19918;-53
2023/11/18 09:31:16;;;;;;;;;;;11.90;67.10;;;5.42;100.00;96308.28;4997376;28;19916;-58
2023/11/18 09:33:51;;;;;;;;;;;12.00;67.10;;;5.55;100.00;96305.53;5000140;28;19916;-55
2023/11/18 09:36:19;;;;;;;;;;;12.10;67.10;;;5.66;100.00;96311.94;5004859;28;19909;-59
2023/11/18 09:38:49;;;;;;;;;;;12.20;67.00;;;5.75;100.00;96308.00;4986747;28;20264;-58
2023/11/18 09:41:16;;;;;;;;;;;12.30;67.00;;;5.88;100.00;96306.28;4993001;28;19910;-54
2023/11/18 09:43:47;;;;;;;;;;;12.40;67.10;;;5.90;100.00;96309.53;5002233;28;20054;-55
2023/11/18 09:46:32;;;;;;;;;;;12.50;67.00;;;5.97;100.00;96315.59;5001873;28;20424;-57
2023/11/18 09:49:38;;;;;;;;;;;12.50;66.90;;;6.12;100.00;96320.53;4987618;28;19959;-54
2023/11/18 09:52:06;;;;;;;;;;;12.60;66.80;;;6.24;100.00;96329.38;4989834;28;20003;-53
2023/11/18 09:54:53;;;;;;;;;;;12.70;66.90;;;6.43;100.00;96333.66;4987924;28;19910;-56
2023/11/18 09:57:29;;;;;;;;;;;12.90;67.00;;;6.56;100.00;96331.91;5010590;28;19944;-52
2023/11/18 10:00:26;;;;;;;;;;;13.10;67.00;;;6.59;97.13;96336.75;4991724;28;19909;-51
2023/11/18 10:02:55;;;;;;;;;;;13.20;66.80;;;6.72;95.53;96326.00;4993752;28;19999;-53
2023/11/18 10:05:25;;;;;;;;;;;13.30;66.60;;;6.87;97.39;96320.34;4984723;28;19913;-52
2023/11/18 10:07:51;;;;;;;;;;;13.40;66.50;;;6.88;93.40;96316.66;4993878;28;19998;-52
2023/11/18 10:10:17;;;;;;;;;;;13.60;66.40;;;6.92;93.77;96317.81;4993441;28;19916;-53
2023/11/18 10:12:44;;;;;;;;;;;13.60;66.20;;;6.91;91.12;96322.28;4988790;28;19924;-52
2023/11/18 10:15:23;;;;;;;;;;;13.60;66.00;;;6.99;91.01;96321.19;4995181;28;20002;-55
2023/11/18 10:18:09;;;;;;;;;;;13.60;65.70;;;7.00;89.56;96324.66;4978184;28;19917;-51
2023/11/18 10:20:53;;;;;;;;;;;13.60;65.60;;;7.09;91.29;96320.66;4992851;28;19918;-52
2023/11/18 10:23:22;;;;;;;;;;;13.60;65.50;;;7.18;91.03;96317.47;4986144;28;20023;-51
2023/11/18 10:25:53;;;;;;;;;;;13.60;65.50;;;7.25;90.19;96317.38;4993168;28;19909;-54
2023/11/18 10:28:37;;;;;;;;;;;13.70;65.50;;;7.26;88.12;96313.69;4993044;28;20395;-53
2023/11/18 10:31:09;;;;;;;;;;;13.70;65.30;;;7.27;87.72;96320.63;4995363;28;19955;-53
2023/11/18 10:33:43;;;;;;;;;;;13.80;65.10;;;7.34;86.31;96320.53;4995105;28;19933;-52
2023/11/18 10:36:23;;;;;;;;;;;13.80;65.00;;;7.39;85.93;96321.44;4977502;28;20580;-52
2023/11/18 10:38:51;;;;;;;;;;;13.80;64.80;;;7.47;86.04;96319.53;4999359;28;19909;-51
2023/11/18 10:41:19;;;;;;;;;;;13.80;64.80;;;7.47;85.84;96306.28;4986872;28;19953;-52
2023/11/18 10:43:45;;;;;;;;;;;13.80;64.50;;;7.59;84.88;96309.75;4985675;28;19937;-53
2023/11/18 10:46:15;;;;;;;;;;;13.90;64.40;;;7.71;84.36;96307.94;4987758;28;19913;-51
2023/11/18 10:48:48;;;;;;;;;;;14.00;64.30;;;7.86;84.39;96300.31;4988825;28;19914;-55
2023/11/18 10:51:19;;;;;;;;;;;14.00;64.10;;;7.95;83.29;96303.44;4994101;28;19917;-51
2023/11/18 10:54:03;;;;;;;;;;;14.10;64.10;;;8.01;83.70;96312.34;4986257;28;19917;-53
2023/11/18 10:56:30;;;;;;;;;;;14.10;64.10;;;8.08;81.64;96313.84;4982592;28;19913;-54
2023/11/18 10:59:05;;;;;;;;;;;14.20;64.10;;;8.12;82.45;96316.84;4991825;28;19914;-57
2023/11/18 11:01:44;;;;;;;;;;;14.10;64.00;;;8.11;82.10;96317.88;4988330;28;19914;-58
2023/11/18 11:04:16;;;;;;;;;;;14.20;64.00;;;8.09;81.30;96315.47;4991052;28;20380;-53
2023/11/18 11:07:02;;;;;;;;;;;14.20;63.90;;;8.15;80.37;96320.88;4985204;28;19909;-57
2023/11/18 11:09:28;;;;;;;;;;;14.20;63.80;;;8.13;79.66;96325.63;4989595;28;19913;-59
2023/11/18 11:12:04;;;;;;;;;;;14.30;63.70;;;8.20;79.57;96326.28;4991917;28;20284;-54
2023/11/18 11:14:53;;;;;;;;;;;14.30;63.60;;;8.30;80.58;96329.16;4995010;28;20016;-52
2023/11/18 11:17:29;;;;;;;;;;;14.40;63.60;;;8.33;79.52;96320.75;4994660;28;19909;-57
2023/11/18 11:23:49;;;;;;;;;;;14.40;63.30;;;8.33;76.89;96302.97;4963797;28;19909;-59
2023/11/18 11:26:48;;;;;;;;;;;14.40;63.00;;;8.23;72.86;96305.41;4959606;28;19909;-59
2023/11/18 11:29:36;;;;;;;;;;;14.40;62.80;;;8.23;73.76;96316.03;4990032;28;19913;-59
2023/11/18 11:32:27;;;;;;;;;;;14.30;62.50;;;8.31;76.76;96318.34;4991576;28;19909;-57
2023/11/18 11:35:05;;;;;;;;;;;14.30;62.50;;;8.35;72.02;96322.13;4975508;28;19913;-54
2023/11/18 11:37:34;;;;;;;;;;;14.30;62.50;;;8.34;71.88;96319.72;4986835;28;19925;-55
2023/11/18 11:40:04;;;;;;;;;;;14.20;62.20;;;8.26;70.86;96323.53;4984569;28;20012;-53
2023/11/18 11:42:32;;;;;;;;;;;14.20;62.20;;;8.23;72.94;96316.03;4992582;28;19955;-54